Granite Falls, NC (28630)

5:49 PM EDT on September 30, 2016 (GMT -0400)
Granite Falls- Downtown | | Change Station

Elev 1198 ft 35.80 °N, 81.43 °W | Updated 34 seconds ago

Clear
Clear
77.4 °F
Feels Like 78 °F
N
4.0
Wind Variable Wind from West

Today
High -- | Low -- °F
--% Chance of Precip.
Yesterday
High -- | Low -- °F
Precip. -- in
Pressure 29.92 in
Visibility 10.0 miles
Clouds Clear
Heat Index 78 °F
Dew Point 50 °F
Humidity 39%
Rainfall 0.00 in
Snow Depth Not available.
7:20 AM 7:10 PM
Waning Crescent, 0% visible
METAR KHKY 302053Z AUTO 20008KT 180V240 10SM CLR 24/09 A2997 RMK AO2 SLP130 T02390094 55005
Pressure 29.92 in
Visibility 10.0 miles
Clouds Clear
Heat Index 78 °F
Dew Point 50 °F
Humidity 39%
Rainfall 0.00 in
Snow Depth Not available.
7:20 AM 7:10 PM
Waning Crescent, 0% visible
METAR KHKY 302053Z AUTO 20008KT 180V240 10SM CLR 24/09 A2997 RMK AO2 SLP130 T02390094 55005

10-Day Weather Forecast

Almanac

Astronomy

Sep. 30, 2016 Rise Set
Actual Time
Civil Twilight
Nautical Twilight
Astronomical Twilight
Moon
Length of Visible Light
Length of Day
Tomorrow will be .
, % of the Moon is Illuminated

Today's Extremes

State Highs State Lows

Community

WunderPhotos

Upload Photos

1,942,794 photos uploaded!

WunderBlog® & News

Nearby

Air Quality

  Air Quality AQ Index Pollutant
Not available.

Snow Depth

Station Depth Elevation

Earthquake Activity

City Distance Mag. Time & Date
Minimum magnitude displayed is 2.5.

Coastal Water Temperatures

Place Temperature

Stations

Nearby Weather Stations

Station Location Temp. Windchill Dew Point Humidity Wind Precip. Elev Updated Type
                   

Watches & Warnings

There are currently no watches in effect.